West Manchester, Ohio
Current Conditions -  °F | °C
As of 3:56 AM on Wednesday 28 Jan 2015 (Local Time) from KDAY Reporting Station
Haze Haze  
Wind Chill: -12°   Ceiling: Unl
Heat Index: -12°   Visibility: 6mi
Dew Point: -14°   Wind: 3mph
Humidity: 81%   Direction: 300°WNW
Pressure: 30.27"   Gusts: NA
Location:  39.9°N, 84.63°W
Report Text: KDAY 280856Z 30003KT 6SM HZ CLR M12/M14 A3027 RMK AO2 SLP269 I3000 T11171144 53014
Loading
Personal Weather Stations






























Interactive Weather Map New forecast layout! Learn more

10-Day Weather Forecast

Advertisements
Track Severe Weather on mobile